Terminal Aerodrome Forecast
Issued by NWS Pittsburgh, PA

Current Version | Previous Version | Graphics & Text | Print | Product List | Glossary On
Versions: 1 2 3 4 5 6 7 8 9 10 11 12 13 14 15 16 17 18 19 20 21 22 23 24 25 26 27 28 29 30 31 32
000
FTUS41 KPBZ 241724
TAFPIT
TAF
KPIT 241724Z 2418/2524 23011G24KT P6SM BKN050
     FM250300 18011KT P6SM SCT120 WS020/19040KT
     FM251000 19011G25KT 3SM -SHRA VCTS BKN045CB
     FM251600 23016G30KT P6SM BKN030=

USA.gov is the U.S. government's official web portal to all federal, state and local government web resources and services.